sensor_id;sensor_type;location;lat;lon;timestamp;P1;durP1;ratioP1;P2;durP2;ratioP2
55829;SDS011;41759;53.330;6.002;2024-03-06T00:02:10;14.25;;;7.93;;
55829;SDS011;41759;53.330;6.002;2024-03-06T00:04:36;16.00;;;8.48;;
55829;SDS011;41759;53.330;6.002;2024-03-06T00:07:02;15.15;;;8.48;;
55829;SDS011;41759;53.330;6.002;2024-03-06T00:09:28;15.15;;;8.90;;
55829;SDS011;41759;53.330;6.002;2024-03-06T00:11:54;16.17;;;8.65;;
55829;SDS011;41759;53.330;6.002;2024-03-06T00:14:21;17.85;;;9.27;;
55829;SDS011;41759;53.330;6.002;2024-03-06T00:16:47;18.23;;;9.93;;
55829;SDS011;41759;53.330;6.002;2024-03-06T00:19:15;16.33;;;9.27;;
55829;SDS011;41759;53.330;6.002;2024-03-06T00:21:44;21.95;;;8.73;;
55829;SDS011;41759;53.330;6.002;2024-03-06T00:24:13;21.25;;;9.85;;
55829;SDS011;41759;53.330;6.002;2024-03-06T00:26:40;19.65;;;9.45;;
55829;SDS011;41759;53.330;6.002;2024-03-06T00:29:09;15.82;;;9.30;;
55829;SDS011;41759;53.330;6.002;2024-03-06T00:31:36;15.90;;;8.70;;
55829;SDS011;41759;53.330;6.002;2024-03-06T00:34:02;19.58;;;9.73;;
55829;SDS011;41759;53.330;6.002;2024-03-06T00:36:28;21.15;;;9.93;;
55829;SDS011;41759;53.330;6.002;2024-03-06T00:38:53;13.75;;;8.00;;
55829;SDS011;41759;53.330;6.002;2024-03-06T00:41:19;22.23;;;9.27;;
55829;SDS011;41759;53.330;6.002;2024-03-06T00:43:45;20.40;;;9.43;;
55829;SDS011;41759;53.330;6.002;2024-03-06T00:46:10;19.88;;;9.65;;
55829;SDS011;41759;53.330;6.002;2024-03-06T00:48:36;14.57;;;8.52;;
55829;SDS011;41759;53.330;6.002;2024-03-06T00:51:04;20.42;;;9.00;;
55829;SDS011;41759;53.330;6.002;2024-03-06T00:53:32;15.45;;;8.85;;
55829;SDS011;41759;53.330;6.002;2024-03-06T00:55:59;18.65;;;8.48;;
55829;SDS011;41759;53.330;6.002;2024-03-06T00:58:25;18.75;;;8.40;;
55829;SDS011;41759;53.330;6.002;2024-03-06T01:00:51;18.23;;;9.88;;
55829;SDS011;41759;53.330;6.002;2024-03-06T01:03:16;19.77;;;9.75;;
55829;SDS011;41759;53.330;6.002;2024-03-06T01:05:42;15.38;;;8.70;;
55829;SDS011;41759;53.330;6.002;2024-03-06T01:08:08;16.80;;;9.35;;
55829;SDS011;41759;53.330;6.002;2024-03-06T01:10:33;18.27;;;9.43;;
55829;SDS011;41759;53.330;6.002;2024-03-06T01:12:59;18.80;;;9.18;;
55829;SDS011;41759;53.330;6.002;2024-03-06T01:15:25;16.85;;;9.05;;
55829;SDS011;41759;53.330;6.002;2024-03-06T01:17:50;16.70;;;9.32;;
55829;SDS011;41759;53.330;6.002;2024-03-06T01:20:16;20.45;;;9.35;;
55829;SDS011;41759;53.330;6.002;2024-03-06T01:22:42;17.58;;;9.18;;
55829;SDS011;41759;53.330;6.002;2024-03-06T01:25:07;16.38;;;8.70;;
55829;SDS011;41759;53.330;6.002;2024-03-06T01:27:33;21.13;;;9.32;;
55829;SDS011;41759;53.330;6.002;2024-03-06T01:29:59;19.58;;;9.35;;
55829;SDS011;41759;53.330;6.002;2024-03-06T01:32:24;16.20;;;8.38;;
55829;SDS011;41759;53.330;6.002;2024-03-06T01:34:51;17.85;;;8.65;;
55829;SDS011;41759;53.330;6.002;2024-03-06T01:37:16;17.63;;;9.32;;
55829;SDS011;41759;53.330;6.002;2024-03-06T01:39:42;21.05;;;8.88;;
55829;SDS011;41759;53.330;6.002;2024-03-06T01:42:08;17.90;;;9.70;;
55829;SDS011;41759;53.330;6.002;2024-03-06T01:44:34;21.30;;;9.27;;
55829;SDS011;41759;53.330;6.002;2024-03-06T01:47:00;21.42;;;10.15;;
55829;SDS011;41759;53.330;6.002;2024-03-06T01:49:26;23.55;;;10.00;;
55829;SDS011;41759;53.330;6.002;2024-03-06T01:51:53;19.88;;;9.40;;
55829;SDS011;41759;53.330;6.002;2024-03-06T01:54:20;22.60;;;9.02;;
55829;SDS011;41759;53.330;6.002;2024-03-06T01:56:47;17.70;;;10.35;;
55829;SDS011;41759;53.330;6.002;2024-03-06T01:59:15;21.92;;;9.02;;
55829;SDS011;41759;53.330;6.002;2024-03-06T02:01:42;17.92;;;9.30;;
55829;SDS011;41759;53.330;6.002;2024-03-06T02:04:08;21.67;;;9.68;;
55829;SDS011;41759;53.330;6.002;2024-03-06T02:06:37;20.48;;;9.45;;
55829;SDS011;41759;53.330;6.002;2024-03-06T02:09:04;19.38;;;9.63;;
55829;SDS011;41759;53.330;6.002;2024-03-06T02:11:29;20.52;;;9.52;;
55829;SDS011;41759;53.330;6.002;2024-03-06T02:13:55;18.65;;;8.50;;
55829;SDS011;41759;53.330;6.002;2024-03-06T02:16:21;18.52;;;9.50;;
55829;SDS011;41759;53.330;6.002;2024-03-06T02:18:56;19.27;;;8.50;;
55829;SDS011;41759;53.330;6.002;2024-03-06T02:21:23;15.73;;;8.95;;
55829;SDS011;41759;53.330;6.002;2024-03-06T02:23:50;17.65;;;9.18;;
55829;SDS011;41759;53.330;6.002;2024-03-06T02:26:20;19.10;;;9.50;;
55829;SDS011;41759;53.330;6.002;2024-03-06T02:28:50;18.58;;;8.68;;
55829;SDS011;41759;53.330;6.002;2024-03-06T02:31:17;18.23;;;9.70;;
55829;SDS011;41759;53.330;6.002;2024-03-06T02:33:43;23.73;;;10.35;;
55829;SDS011;41759;53.330;6.002;2024-03-06T02:36:10;15.68;;;8.95;;
55829;SDS011;41759;53.330;6.002;2024-03-06T02:38:36;17.45;;;9.48;;
55829;SDS011;41759;53.330;6.002;2024-03-06T02:41:02;19.95;;;10.02;;
55829;SDS011;41759;53.330;6.002;2024-03-06T02:43:28;20.30;;;9.40;;
55829;SDS011;41759;53.330;6.002;2024-03-06T02:45:54;19.63;;;10.02;;
55829;SDS011;41759;53.330;6.002;2024-03-06T02:48:20;15.60;;;8.57;;
55829;SDS011;41759;53.330;6.002;2024-03-06T02:50:45;17.50;;;9.82;;
55829;SDS011;41759;53.330;6.002;2024-03-06T02:53:11;21.33;;;10.38;;
55829;SDS011;41759;53.330;6.002;2024-03-06T02:55:37;17.13;;;9.68;;
55829;SDS011;41759;53.330;6.002;2024-03-06T02:58:03;20.33;;;10.05;;
55829;SDS011;41759;53.330;6.002;2024-03-06T03:00:29;19.58;;;10.27;;
55829;SDS011;41759;53.330;6.002;2024-03-06T03:02:56;18.17;;;10.23;;
55829;SDS011;41759;53.330;6.002;2024-03-06T03:05:22;18.58;;;9.50;;
55829;SDS011;41759;53.330;6.002;2024-03-06T03:07:49;18.73;;;10.25;;
55829;SDS011;41759;53.330;6.002;2024-03-06T03:10:15;20.02;;;10.13;;
55829;SDS011;41759;53.330;6.002;2024-03-06T03:12:41;20.30;;;9.65;;
55829;SDS011;41759;53.330;6.002;2024-03-06T03:15:07;20.02;;;10.70;;
55829;SDS011;41759;53.330;6.002;2024-03-06T03:17:33;21.63;;;10.23;;
55829;SDS011;41759;53.330;6.002;2024-03-06T03:19:59;21.58;;;10.38;;
55829;SDS011;41759;53.330;6.002;2024-03-06T03:22:25;19.98;;;10.30;;
55829;SDS011;41759;53.330;6.002;2024-03-06T03:24:51;15.40;;;9.35;;
55829;SDS011;41759;53.330;6.002;2024-03-06T03:27:16;23.02;;;9.55;;
55829;SDS011;41759;53.330;6.002;2024-03-06T03:29:43;21.00;;;9.75;;
55829;SDS011;41759;53.330;6.002;2024-03-06T03:32:09;23.00;;;10.02;;
55829;SDS011;41759;53.330;6.002;2024-03-06T03:34:35;18.40;;;10.68;;
55829;SDS011;41759;53.330;6.002;2024-03-06T03:37:01;19.55;;;9.77;;
55829;SDS011;41759;53.330;6.002;2024-03-06T03:39:26;22.08;;;11.73;;
55829;SDS011;41759;53.330;6.002;2024-03-06T03:41:52;25.95;;;10.95;;
55829;SDS011;41759;53.330;6.002;2024-03-06T03:44:18;18.33;;;10.48;;
55829;SDS011;41759;53.330;6.002;2024-03-06T03:46:44;16.58;;;9.13;;
55829;SDS011;41759;53.330;6.002;2024-03-06T03:49:10;19.42;;;10.25;;
55829;SDS011;41759;53.330;6.002;2024-03-06T03:51:37;20.02;;;10.30;;
55829;SDS011;41759;53.330;6.002;2024-03-06T03:54:04;18.85;;;10.05;;
55829;SDS011;41759;53.330;6.002;2024-03-06T03:56:30;20.50;;;10.02;;
55829;SDS011;41759;53.330;6.002;2024-03-06T03:58:56;23.13;;;10.82;;
55829;SDS011;41759;53.330;6.002;2024-03-06T04:01:23;21.48;;;11.07;;
55829;SDS011;41759;53.330;6.002;2024-03-06T04:03:49;22.17;;;11.25;;
55829;SDS011;41759;53.330;6.002;2024-03-06T04:06:16;21.27;;;11.77;;
55829;SDS011;41759;53.330;6.002;2024-03-06T04:08:42;22.75;;;10.93;;
55829;SDS011;41759;53.330;6.002;2024-03-06T04:11:07;20.30;;;10.93;;
55829;SDS011;41759;53.330;6.002;2024-03-06T04:13:36;20.92;;;11.38;;
55829;SDS011;41759;53.330;6.002;2024-03-06T04:16:03;21.13;;;10.32;;
55829;SDS011;41759;53.330;6.002;2024-03-06T04:18:30;20.67;;;10.68;;
55829;SDS011;41759;53.330;6.002;2024-03-06T04:21:02;20.95;;;10.90;;
55829;SDS011;41759;53.330;6.002;2024-03-06T04:23:31;20.75;;;11.07;;
55829;SDS011;41759;53.330;6.002;2024-03-06T04:25:58;20.73;;;10.88;;
55829;SDS011;41759;53.330;6.002;2024-03-06T04:28:24;19.58;;;11.35;;
55829;SDS011;41759;53.330;6.002;2024-03-06T04:30:49;20.63;;;10.82;;
55829;SDS011;41759;53.330;6.002;2024-03-06T04:33:15;22.92;;;12.18;;
55829;SDS011;41759;53.330;6.002;2024-03-06T04:35:41;23.15;;;11.13;;
55829;SDS011;41759;53.330;6.002;2024-03-06T04:38:07;23.88;;;11.60;;
55829;SDS011;41759;53.330;6.002;2024-03-06T04:40:33;20.80;;;10.93;;
55829;SDS011;41759;53.330;6.002;2024-03-06T04:43:02;24.45;;;11.88;;
55829;SDS011;41759;53.330;6.002;2024-03-06T04:45:28;22.75;;;11.77;;
55829;SDS011;41759;53.330;6.002;2024-03-06T04:47:54;23.20;;;12.15;;
55829;SDS011;41759;53.330;6.002;2024-03-06T04:50:20;23.48;;;12.95;;
55829;SDS011;41759;53.330;6.002;2024-03-06T04:52:46;19.85;;;10.25;;
55829;SDS011;41759;53.330;6.002;2024-03-06T04:55:12;24.30;;;11.75;;
55829;SDS011;41759;53.330;6.002;2024-03-06T04:57:41;23.42;;;11.10;;
55829;SDS011;41759;53.330;6.002;2024-03-06T05:00:09;20.63;;;10.82;;
55829;SDS011;41759;53.330;6.002;2024-03-06T05:02:36;23.60;;;11.57;;
55829;SDS011;41759;53.330;6.002;2024-03-06T05:05:02;22.90;;;12.25;;
55829;SDS011;41759;53.330;6.002;2024-03-06T05:07:29;22.30;;;11.65;;
55829;SDS011;41759;53.330;6.002;2024-03-06T05:09:55;26.05;;;12.52;;
55829;SDS011;41759;53.330;6.002;2024-03-06T05:12:22;21.65;;;11.90;;
55829;SDS011;41759;53.330;6.002;2024-03-06T05:14:48;22.92;;;11.60;;
55829;SDS011;41759;53.330;6.002;2024-03-06T05:17:14;28.65;;;12.43;;
55829;SDS011;41759;53.330;6.002;2024-03-06T05:19:40;22.60;;;11.73;;
55829;SDS011;41759;53.330;6.002;2024-03-06T05:22:05;22.95;;;11.65;;
55829;SDS011;41759;53.330;6.002;2024-03-06T05:24:31;25.75;;;12.02;;
55829;SDS011;41759;53.330;6.002;2024-03-06T05:26:57;21.25;;;10.93;;
55829;SDS011;41759;53.330;6.002;2024-03-06T05:29:23;21.63;;;10.45;;
55829;SDS011;41759;53.330;6.002;2024-03-06T05:31:48;27.83;;;12.57;;
55829;SDS011;41759;53.330;6.002;2024-03-06T05:34:14;24.27;;;11.75;;
55829;SDS011;41759;53.330;6.002;2024-03-06T05:36:40;24.30;;;12.85;;
55829;SDS011;41759;53.330;6.002;2024-03-06T05:39:06;27.13;;;12.38;;
55829;SDS011;41759;53.330;6.002;2024-03-06T05:41:34;25.13;;;12.35;;
55829;SDS011;41759;53.330;6.002;2024-03-06T05:44:00;22.27;;;12.25;;
55829;SDS011;41759;53.330;6.002;2024-03-06T05:46:26;22.73;;;11.85;;
55829;SDS011;41759;53.330;6.002;2024-03-06T05:48:51;23.80;;;11.95;;
55829;SDS011;41759;53.330;6.002;2024-03-06T05:51:17;21.13;;;12.13;;
55829;SDS011;41759;53.330;6.002;2024-03-06T05:53:43;21.73;;;12.32;;
55829;SDS011;41759;53.330;6.002;2024-03-06T05:56:09;23.85;;;12.50;;
55829;SDS011;41759;53.330;6.002;2024-03-06T05:58:35;22.80;;;11.57;;
55829;SDS011;41759;53.330;6.002;2024-03-06T06:01:01;23.60;;;12.30;;
55829;SDS011;41759;53.330;6.002;2024-03-06T06:03:28;27.45;;;12.80;;
55829;SDS011;41759;53.330;6.002;2024-03-06T06:05:56;23.30;;;12.07;;
55829;SDS011;41759;53.330;6.002;2024-03-06T06:08:23;22.40;;;11.55;;
55829;SDS011;41759;53.330;6.002;2024-03-06T06:10:49;25.42;;;11.70;;
55829;SDS011;41759;53.330;6.002;2024-03-06T06:13:17;26.63;;;12.35;;
55829;SDS011;41759;53.330;6.002;2024-03-06T06:15:43;25.60;;;12.43;;
55829;SDS011;41759;53.330;6.002;2024-03-06T06:18:09;27.48;;;13.02;;
55829;SDS011;41759;53.330;6.002;2024-03-06T06:20:35;24.77;;;12.50;;
55829;SDS011;41759;53.330;6.002;2024-03-06T06:23:01;21.50;;;12.23;;
55829;SDS011;41759;53.330;6.002;2024-03-06T06:25:27;25.67;;;13.82;;
55829;SDS011;41759;53.330;6.002;2024-03-06T06:27:52;25.77;;;12.93;;
55829;SDS011;41759;53.330;6.002;2024-03-06T06:30:18;23.40;;;12.50;;
55829;SDS011;41759;53.330;6.002;2024-03-06T06:32:44;25.40;;;12.50;;
55829;SDS011;41759;53.330;6.002;2024-03-06T06:35:10;23.38;;;12.75;;
55829;SDS011;41759;53.330;6.002;2024-03-06T06:37:39;31.05;;;14.30;;
55829;SDS011;41759;53.330;6.002;2024-03-06T06:40:06;26.75;;;13.90;;
55829;SDS011;41759;53.330;6.002;2024-03-06T06:42:33;30.80;;;14.00;;
55829;SDS011;41759;53.330;6.002;2024-03-06T06:44:59;30.95;;;14.25;;
55829;SDS011;41759;53.330;6.002;2024-03-06T06:47:27;26.25;;;13.85;;
55829;SDS011;41759;53.330;6.002;2024-03-06T06:49:53;22.88;;;12.52;;
55829;SDS011;41759;53.330;6.002;2024-03-06T06:52:19;27.30;;;13.35;;
55829;SDS011;41759;53.330;6.002;2024-03-06T06:54:44;26.25;;;12.35;;
55829;SDS011;41759;53.330;6.002;2024-03-06T06:57:10;23.38;;;12.73;;
55829;SDS011;41759;53.330;6.002;2024-03-06T06:59:36;22.42;;;12.65;;
55829;SDS011;41759;53.330;6.002;2024-03-06T07:02:02;29.20;;;14.43;;
55829;SDS011;41759;53.330;6.002;2024-03-06T07:04:28;26.67;;;13.00;;
55829;SDS011;41759;53.330;6.002;2024-03-06T07:06:54;34.10;;;17.38;;
55829;SDS011;41759;53.330;6.002;2024-03-06T07:09:20;26.75;;;13.38;;
55829;SDS011;41759;53.330;6.002;2024-03-06T07:11:45;24.13;;;12.50;;
55829;SDS011;41759;53.330;6.002;2024-03-06T07:14:14;26.67;;;12.68;;
55829;SDS011;41759;53.330;6.002;2024-03-06T07:16:44;23.63;;;11.63;;
55829;SDS011;41759;53.330;6.002;2024-03-06T07:19:10;21.38;;;11.73;;
55829;SDS011;41759;53.330;6.002;2024-03-06T07:21:36;27.33;;;12.90;;
55829;SDS011;41759;53.330;6.002;2024-03-06T07:24:02;23.05;;;12.00;;
55829;SDS011;41759;53.330;6.002;2024-03-06T07:26:29;20.95;;;12.27;;
55829;SDS011;41759;53.330;6.002;2024-03-06T07:28:57;24.30;;;13.38;;
55829;SDS011;41759;53.330;6.002;2024-03-06T07:31:24;26.25;;;12.80;;
55829;SDS011;41759;53.330;6.002;2024-03-06T07:33:50;26.55;;;12.85;;
55829;SDS011;41759;53.330;6.002;2024-03-06T07:36:16;26.15;;;13.00;;
55829;SDS011;41759;53.330;6.002;2024-03-06T07:38:42;22.50;;;13.00;;
55829;SDS011;41759;53.330;6.002;2024-03-06T07:41:08;26.23;;;13.18;;
55829;SDS011;41759;53.330;6.002;2024-03-06T07:43:33;23.30;;;13.25;;
55829;SDS011;41759;53.330;6.002;2024-03-06T07:45:59;27.20;;;13.75;;
55829;SDS011;41759;53.330;6.002;2024-03-06T07:48:24;25.90;;;13.70;;
55829;SDS011;41759;53.330;6.002;2024-03-06T07:50:50;24.48;;;14.00;;
55829;SDS011;41759;53.330;6.002;2024-03-06T07:53:16;27.00;;;11.77;;
55829;SDS011;41759;53.330;6.002;2024-03-06T07:55:42;22.70;;;12.98;;
55829;SDS011;41759;53.330;6.002;2024-03-06T07:58:07;29.05;;;13.80;;
55829;SDS011;41759;53.330;6.002;2024-03-06T08:00:34;27.27;;;12.75;;
55829;SDS011;41759;53.330;6.002;2024-03-06T08:03:00;25.67;;;13.18;;
55829;SDS011;41759;53.330;6.002;2024-03-06T08:05:27;28.02;;;12.75;;
55829;SDS011;41759;53.330;6.002;2024-03-06T08:07:53;21.17;;;12.05;;
55829;SDS011;41759;53.330;6.002;2024-03-06T08:10:19;28.42;;;13.65;;
55829;SDS011;41759;53.330;6.002;2024-03-06T08:12:45;22.30;;;11.95;;
55829;SDS011;41759;53.330;6.002;2024-03-06T08:15:13;22.73;;;11.63;;
55829;SDS011;41759;53.330;6.002;2024-03-06T08:17:40;29.63;;;12.82;;
55829;SDS011;41759;53.330;6.002;2024-03-06T08:20:07;28.98;;;13.50;;
55829;SDS011;41759;53.330;6.002;2024-03-06T08:22:34;23.63;;;12.52;;
55829;SDS011;41759;53.330;6.002;2024-03-06T08:25:06;24.77;;;13.95;;
55829;SDS011;41759;53.330;6.002;2024-03-06T08:27:36;28.35;;;12.15;;
55829;SDS011;41759;53.330;6.002;2024-03-06T08:30:03;29.05;;;12.88;;
55829;SDS011;41759;53.330;6.002;2024-03-06T08:32:33;24.02;;;12.15;;
55829;SDS011;41759;53.330;6.002;2024-03-06T08:35:07;21.73;;;12.68;;
55829;SDS011;41759;53.330;6.002;2024-03-06T08:37:37;24.48;;;12.23;;
55829;SDS011;41759;53.330;6.002;2024-03-06T08:40:04;21.88;;;12.15;;
55829;SDS011;41759;53.330;6.002;2024-03-06T08:42:30;22.80;;;12.32;;
55829;SDS011;41759;53.330;6.002;2024-03-06T08:44:57;24.45;;;12.80;;
55829;SDS011;41759;53.330;6.002;2024-03-06T08:47:23;23.90;;;13.00;;
55829;SDS011;41759;53.330;6.002;2024-03-06T08:49:49;22.70;;;12.05;;
55829;SDS011;41759;53.330;6.002;2024-03-06T08:52:15;22.08;;;11.57;;
55829;SDS011;41759;53.330;6.002;2024-03-06T08:54:40;25.15;;;12.80;;
55829;SDS011;41759;53.330;6.002;2024-03-06T08:57:06;24.77;;;13.35;;
55829;SDS011;41759;53.330;6.002;2024-03-06T08:59:33;21.02;;;12.50;;
55829;SDS011;41759;53.330;6.002;2024-03-06T09:02:11;22.95;;;12.25;;
55829;SDS011;41759;53.330;6.002;2024-03-06T09:04:38;17.20;;;10.32;;
55829;SDS011;41759;53.330;6.002;2024-03-06T09:07:03;23.27;;;11.77;;
55829;SDS011;41759;53.330;6.002;2024-03-06T09:09:29;24.65;;;12.50;;
55829;SDS011;41759;53.330;6.002;2024-03-06T09:11:55;20.48;;;11.45;;
55829;SDS011;41759;53.330;6.002;2024-03-06T09:14:20;18.02;;;11.52;;
55829;SDS011;41759;53.330;6.002;2024-03-06T09:16:48;23.27;;;12.10;;
55829;SDS011;41759;53.330;6.002;2024-03-06T09:19:13;19.30;;;10.70;;
55829;SDS011;41759;53.330;6.002;2024-03-06T09:21:39;23.60;;;12.00;;
55829;SDS011;41759;53.330;6.002;2024-03-06T09:24:05;19.80;;;11.40;;
55829;SDS011;41759;53.330;6.002;2024-03-06T09:26:31;20.38;;;11.75;;
55829;SDS011;41759;53.330;6.002;2024-03-06T09:28:56;20.20;;;12.00;;
55829;SDS011;41759;53.330;6.002;2024-03-06T09:31:22;28.63;;;12.95;;
55829;SDS011;41759;53.330;6.002;2024-03-06T09:33:48;19.75;;;11.13;;
55829;SDS011;41759;53.330;6.002;2024-03-06T09:36:14;22.67;;;11.60;;
55829;SDS011;41759;53.330;6.002;2024-03-06T09:38:39;23.90;;;11.65;;
55829;SDS011;41759;53.330;6.002;2024-03-06T09:41:05;18.83;;;11.23;;
55829;SDS011;41759;53.330;6.002;2024-03-06T09:43:33;21.92;;;13.05;;
55829;SDS011;41759;53.330;6.002;2024-03-06T09:45:58;23.45;;;13.18;;
55829;SDS011;41759;53.330;6.002;2024-03-06T09:48:27;21.77;;;12.25;;
55829;SDS011;41759;53.330;6.002;2024-03-06T09:50:53;21.02;;;11.75;;
55829;SDS011;41759;53.330;6.002;2024-03-06T09:53:22;21.52;;;11.10;;
55829;SDS011;41759;53.330;6.002;2024-03-06T09:55:49;19.85;;;10.82;;
55829;SDS011;41759;53.330;6.002;2024-03-06T09:58:15;23.20;;;12.43;;
55829;SDS011;41759;53.330;6.002;2024-03-06T10:00:41;20.70;;;12.52;;
55829;SDS011;41759;53.330;6.002;2024-03-06T10:03:09;24.55;;;13.38;;
55829;SDS011;41759;53.330;6.002;2024-03-06T10:05:36;23.60;;;12.50;;
55829;SDS011;41759;53.330;6.002;2024-03-06T10:08:02;21.23;;;12.20;;
55829;SDS011;41759;53.330;6.002;2024-03-06T10:10:31;20.55;;;11.20;;
55829;SDS011;41759;53.330;6.002;2024-03-06T10:12:57;21.98;;;11.10;;
55829;SDS011;41759;53.330;6.002;2024-03-06T10:15:25;20.55;;;11.30;;
55829;SDS011;41759;53.330;6.002;2024-03-06T10:18:09;19.73;;;11.40;;
55829;SDS011;41759;53.330;6.002;2024-03-06T10:20:39;20.33;;;11.60;;
55829;SDS011;41759;53.330;6.002;2024-03-06T10:23:05;21.35;;;12.77;;
55829;SDS011;41759;53.330;6.002;2024-03-06T10:25:32;20.15;;;11.18;;
55829;SDS011;41759;53.330;6.002;2024-03-06T10:30:32;23.77;;;11.40;;
55829;SDS011;41759;53.330;6.002;2024-03-06T10:33:01;24.40;;;12.27;;
55829;SDS011;41759;53.330;6.002;2024-03-06T10:35:28;21.20;;;11.90;;
55829;SDS011;41759;53.330;6.002;2024-03-06T10:37:54;23.73;;;12.20;;
55829;SDS011;41759;53.330;6.002;2024-03-06T10:40:20;21.85;;;11.70;;
55829;SDS011;41759;53.330;6.002;2024-03-06T10:42:48;22.27;;;13.05;;
55829;SDS011;41759;53.330;6.002;2024-03-06T10:45:14;23.42;;;11.98;;
55829;SDS011;41759;53.330;6.002;2024-03-06T10:47:41;34.25;;;17.05;;
55829;SDS011;41759;53.330;6.002;2024-03-06T10:50:13;22.88;;;12.48;;
55829;SDS011;41759;53.330;6.002;2024-03-06T10:52:40;21.20;;;12.35;;
55829;SDS011;41759;53.330;6.002;2024-03-06T10:55:07;24.10;;;13.00;;
55829;SDS011;41759;53.330;6.002;2024-03-06T10:57:36;22.23;;;12.70;;
55829;SDS011;41759;53.330;6.002;2024-03-06T11:00:03;27.23;;;12.70;;
55829;SDS011;41759;53.330;6.002;2024-03-06T11:02:29;28.50;;;13.85;;
55829;SDS011;41759;53.330;6.002;2024-03-06T11:04:55;26.33;;;13.80;;
55829;SDS011;41759;53.330;6.002;2024-03-06T11:07:20;31.85;;;15.02;;
55829;SDS011;41759;53.330;6.002;2024-03-06T11:09:46;28.42;;;14.43;;
55829;SDS011;41759;53.330;6.002;2024-03-06T11:15:16;29.50;;;14.38;;
55829;SDS011;41759;53.330;6.002;2024-03-06T11:17:42;32.17;;;15.07;;
55829;SDS011;41759;53.330;6.002;2024-03-06T11:20:09;30.10;;;14.48;;
55829;SDS011;41759;53.330;6.002;2024-03-06T11:33:23;33.45;;;15.13;;
55829;SDS011;41759;53.330;6.002;2024-03-06T11:36:19;32.78;;;15.95;;
55829;SDS011;41759;53.330;6.002;2024-03-06T11:39:02;31.73;;;14.30;;
55829;SDS011;41759;53.330;6.002;2024-03-06T11:41:32;32.00;;;15.60;;
55829;SDS011;41759;53.330;6.002;2024-03-06T11:44:01;30.30;;;14.52;;
55829;SDS011;41759;53.330;6.002;2024-03-06T11:49:19;29.58;;;15.30;;
55829;SDS011;41759;53.330;6.002;2024-03-06T11:51:49;29.25;;;14.75;;
55829;SDS011;41759;53.330;6.002;2024-03-06T11:54:15;27.58;;;15.38;;
55829;SDS011;41759;53.330;6.002;2024-03-06T11:56:44;27.92;;;13.65;;
55829;SDS011;41759;53.330;6.002;2024-03-06T11:59:12;33.45;;;15.63;;
55829;SDS011;41759;53.330;6.002;2024-03-06T12:01:38;30.50;;;15.27;;
55829;SDS011;41759;53.330;6.002;2024-03-06T12:04:03;25.60;;;13.95;;
55829;SDS011;41759;53.330;6.002;2024-03-06T12:06:32;31.38;;;15.27;;
55829;SDS011;41759;53.330;6.002;2024-03-06T12:08:58;31.67;;;15.98;;
55829;SDS011;41759;53.330;6.002;2024-03-06T12:11:24;26.48;;;14.70;;
55829;SDS011;41759;53.330;6.002;2024-03-06T12:13:54;28.42;;;14.95;;
55829;SDS011;41759;53.330;6.002;2024-03-06T12:16:21;28.52;;;15.88;;
55829;SDS011;41759;53.330;6.002;2024-03-06T12:18:53;31.25;;;14.23;;
55829;SDS011;41759;53.330;6.002;2024-03-06T12:21:23;27.45;;;15.18;;
55829;SDS011;41759;53.330;6.002;2024-03-06T12:24:02;25.38;;;14.32;;
55829;SDS011;41759;53.330;6.002;2024-03-06T12:26:29;31.10;;;15.93;;
55829;SDS011;41759;53.330;6.002;2024-03-06T12:31:35;31.30;;;15.15;;
55829;SDS011;41759;53.330;6.002;2024-03-06T12:34:02;29.63;;;15.20;;
55829;SDS011;41759;53.330;6.002;2024-03-06T12:36:29;26.38;;;14.77;;
55829;SDS011;41759;53.330;6.002;2024-03-06T12:38:56;28.23;;;16.13;;
55829;SDS011;41759;53.330;6.002;2024-03-06T12:41:26;29.70;;;15.43;;
55829;SDS011;41759;53.330;6.002;2024-03-06T12:43:53;30.27;;;16.17;;
55829;SDS011;41759;53.330;6.002;2024-03-06T12:46:19;33.30;;;15.68;;
55829;SDS011;41759;53.330;6.002;2024-03-06T12:48:45;29.63;;;16.48;;
55829;SDS011;41759;53.330;6.002;2024-03-06T12:51:11;32.63;;;15.65;;
55829;SDS011;41759;53.330;6.002;2024-03-06T12:53:37;31.92;;;15.70;;
55829;SDS011;41759;53.330;6.002;2024-03-06T12:56:03;29.35;;;14.95;;
55829;SDS011;41759;53.330;6.002;2024-03-06T12:58:29;31.63;;;15.90;;
55829;SDS011;41759;53.330;6.002;2024-03-06T13:01:00;28.92;;;14.82;;
55829;SDS011;41759;53.330;6.002;2024-03-06T13:03:27;31.25;;;16.52;;
55829;SDS011;41759;53.330;6.002;2024-03-06T13:05:53;30.30;;;15.60;;
55829;SDS011;41759;53.330;6.002;2024-03-06T13:08:19;27.92;;;15.25;;
55829;SDS011;41759;53.330;6.002;2024-03-06T13:10:45;27.27;;;15.90;;
55829;SDS011;41759;53.330;6.002;2024-03-06T13:13:10;32.30;;;16.35;;
55829;SDS011;41759;53.330;6.002;2024-03-06T13:15:36;31.40;;;15.40;;
55829;SDS011;41759;53.330;6.002;2024-03-06T13:18:02;31.70;;;15.82;;
55829;SDS011;41759;53.330;6.002;2024-03-06T13:20:29;27.42;;;14.27;;
55829;SDS011;41759;53.330;6.002;2024-03-06T13:22:55;28.92;;;15.95;;
55829;SDS011;41759;53.330;6.002;2024-03-06T13:25:21;31.85;;;16.27;;
55829;SDS011;41759;53.330;6.002;2024-03-06T13:27:47;35.20;;;16.40;;
55829;SDS011;41759;53.330;6.002;2024-03-06T13:30:13;28.15;;;15.95;;
55829;SDS011;41759;53.330;6.002;2024-03-06T13:32:39;36.33;;;17.23;;
55829;SDS011;41759;53.330;6.002;2024-03-06T13:35:05;35.30;;;16.95;;
55829;SDS011;41759;53.330;6.002;2024-03-06T13:37:31;29.67;;;15.48;;
55829;SDS011;41759;53.330;6.002;2024-03-06T13:39:59;28.40;;;15.85;;
55829;SDS011;41759;53.330;6.002;2024-03-06T13:42:26;36.30;;;18.00;;
55829;SDS011;41759;53.330;6.002;2024-03-06T13:44:52;32.05;;;15.80;;
55829;SDS011;41759;53.330;6.002;2024-03-06T13:47:19;27.42;;;16.45;;
55829;SDS011;41759;53.330;6.002;2024-03-06T13:49:44;31.30;;;17.00;;
55829;SDS011;41759;53.330;6.002;2024-03-06T13:52:10;34.53;;;16.65;;
55829;SDS011;41759;53.330;6.002;2024-03-06T13:54:38;29.70;;;15.75;;
55829;SDS011;41759;53.330;6.002;2024-03-06T13:57:05;33.20;;;16.60;;
55829;SDS011;41759;53.330;6.002;2024-03-06T13:59:32;26.73;;;16.35;;
55829;SDS011;41759;53.330;6.002;2024-03-06T14:01:59;34.33;;;18.00;;
55829;SDS011;41759;53.330;6.002;2024-03-06T14:04:25;35.30;;;16.75;;
55829;SDS011;41759;53.330;6.002;2024-03-06T14:06:52;33.15;;;16.88;;
55829;SDS011;41759;53.330;6.002;2024-03-06T14:09:17;28.85;;;15.98;;
55829;SDS011;41759;53.330;6.002;2024-03-06T14:11:43;29.40;;;16.63;;
55829;SDS011;41759;53.330;6.002;2024-03-06T14:14:09;31.42;;;15.23;;
55829;SDS011;41759;53.330;6.002;2024-03-06T14:16:36;32.28;;;18.40;;
55829;SDS011;41759;53.330;6.002;2024-03-06T14:19:02;31.13;;;16.48;;
55829;SDS011;41759;53.330;6.002;2024-03-06T14:21:29;34.45;;;17.42;;
55829;SDS011;41759;53.330;6.002;2024-03-06T14:23:57;33.63;;;18.15;;
55829;SDS011;41759;53.330;6.002;2024-03-06T14:26:23;28.77;;;16.92;;
55829;SDS011;41759;53.330;6.002;2024-03-06T14:28:49;30.27;;;16.50;;
55829;SDS011;41759;53.330;6.002;2024-03-06T14:31:15;37.75;;;17.80;;
55829;SDS011;41759;53.330;6.002;2024-03-06T14:33:41;31.98;;;17.25;;
55829;SDS011;41759;53.330;6.002;2024-03-06T14:36:07;28.30;;;16.95;;
55829;SDS011;41759;53.330;6.002;2024-03-06T14:38:32;33.60;;;17.67;;
55829;SDS011;41759;53.330;6.002;2024-03-06T14:40:58;38.22;;;19.65;;
55829;SDS011;41759;53.330;6.002;2024-03-06T14:43:24;35.60;;;18.33;;